Time;durP1;ratioP1;P1;durP2;ratioP2;P2;SDS_P1;SDS_P2;PMS_P1;PMS_P2;Temp;Humidity;BMP_temperature;BMP_pressure;BME280_temperature;BME280_humidity;BME280_pressure;Samples;Min_cycle;Max_cycle;Signal;HPM_P1;HPM_P2
2022/11/24 00:01:59;;;;;;;5.70;3.63;;;;;;;8.57;100.00;93370.41;5072003;28;20188;-61
2022/11/24 00:04:24;;;;;;;6.83;4.30;;;;;;;8.44;100.00;93360.66;5071852;28;20216;-63
2022/11/24 00:06:52;;;;;;;6.57;3.50;;;;;;;8.40;100.00;93351.00;5071897;28;20209;-60
2022/11/24 00:09:17;;;;;;;8.97;3.67;;;;;;;8.44;100.00;93358.13;5072088;28;20212;-61
2022/11/24 00:11:43;;;;;;;7.23;3.40;;;;;;;8.43;100.00;93364.16;5071848;28;20191;-63
2022/11/24 00:14:09;;;;;;;9.07;3.30;;;;;;;8.39;100.00;93378.06;5071791;28;20205;-63
2022/11/24 00:16:36;;;;;;;3.83;2.80;;;;;;;8.54;100.00;93390.16;5071852;28;20286;-62
2022/11/24 00:19:04;;;;;;;7.30;3.20;;;;;;;8.64;100.00;93403.53;5071680;28;20694;-63
2022/11/24 00:21:30;;;;;;;6.30;3.47;;;;;;;8.61;100.00;93394.47;5071539;28;20216;-62
2022/11/24 00:23:56;;;;;;;6.10;3.50;;;;;;;8.30;100.00;93363.72;5072015;28;20603;-59
2022/11/24 00:26:24;;;;;;;6.40;3.30;;;;;;;8.38;100.00;93375.69;5071723;28;20192;-63
2022/11/24 00:28:52;;;;;;;5.93;3.20;;;;;;;8.39;100.00;93377.25;5071589;28;20237;-63
2022/11/24 00:31:23;;;;;;;5.73;3.43;;;;;;;8.62;100.00;93400.34;5071458;28;20283;-64
2022/11/24 00:33:51;;;;;;;4.70;3.30;;;;;;;8.65;100.00;93410.97;5071323;28;20181;-64
2022/11/24 00:36:17;;;;;;;7.73;4.10;;;;;;;8.58;100.00;93404.94;5071742;28;20197;-62
2022/11/24 00:38:43;;;;;;;6.20;3.77;;;;;;;8.56;100.00;93404.28;5071406;28;20563;-64
2022/11/24 00:41:08;;;;;;;4.37;3.27;;;;;;;8.44;100.00;93388.50;5071629;28;20213;-64
2022/11/24 00:43:34;;;;;;;6.47;3.20;;;;;;;8.48;100.00;93406.75;5071409;28;20728;-62
2022/11/24 00:46:00;;;;;;;8.00;3.67;;;;;;;8.43;100.00;93388.66;5071338;28;20210;-63
2022/11/24 00:48:25;;;;;;;4.43;2.97;;;;;;;8.44;100.00;93375.84;5071241;28;20196;-60
2022/11/24 00:50:59;;;;;;;7.57;3.00;;;;;;;8.72;100.00;93411.19;5071244;28;20209;-63
2022/11/24 00:53:24;;;;;;;4.43;3.07;;;;;;;8.74;100.00;93427.03;5071116;28;20208;-62
2022/11/24 00:55:51;;;;;;;6.53;3.23;;;;;;;8.53;100.00;93409.63;5053196;28;20267;-63
2022/11/24 00:58:16;;;;;;;4.63;3.30;;;;;;;8.46;100.00;93417.00;5071053;28;20218;-64
2022/11/24 01:00:42;;;;;;;5.00;2.90;;;;;;;8.42;100.00;93405.59;5053094;28;20224;-59
2022/11/24 01:03:08;;;;;;;8.37;2.90;;;;;;;8.27;100.00;93389.34;5053242;28;20176;-63
2022/11/24 01:05:38;;;;;;;3.23;2.40;;;;;;;8.35;100.00;93399.53;5071257;28;20236;-63
2022/11/24 01:08:04;;;;;;;5.40;3.03;;;;;;;8.23;100.00;93404.94;5070976;28;20189;-63
2022/11/24 01:10:29;;;;;;;6.23;3.60;;;;;;;8.20;100.00;93405.25;5071108;28;20286;-63
2022/11/24 01:12:55;;;;;;;5.93;3.50;;;;;;;8.41;100.00;93398.94;5052959;28;20196;-62
2022/11/24 01:15:20;;;;;;;5.33;3.30;;;;;;;8.48;100.00;93405.00;5052712;28;20587;-63
2022/11/24 01:17:46;;;;;;;6.50;3.17;;;;;;;8.35;100.00;93388.63;5069681;28;20669;-63
2022/11/24 01:20:12;;;;;;;4.43;3.40;;;;;;;8.55;100.00;93420.41;5070658;28;20725;-62
2022/11/24 01:22:38;;;;;;;3.63;2.70;;;;;;;8.58;100.00;93434.53;5070656;28;20360;-63
2022/11/24 01:25:05;;;;;;;8.90;3.07;;;;;;;8.45;100.00;93415.44;5069781;28;20274;-62
2022/11/24 01:27:31;;;;;;;9.47;3.10;;;;;;;8.24;100.00;93414.91;5070610;28;20268;-61
2022/11/24 01:29:56;;;;;;;5.37;2.70;;;;;;;8.52;100.00;93435.09;5070758;28;20284;-63
2022/11/24 01:32:22;;;;;;;8.43;3.33;;;;;;;8.22;100.00;93409.22;5070484;28;20596;-62
2022/11/24 01:34:48;;;;;;;6.37;3.23;;;;;;;8.28;100.00;93412.94;5070688;28;20720;-63
2022/11/24 01:37:13;;;;;;;4.13;2.83;;;;;;;8.37;100.00;93419.66;5052590;28;20196;-62
2022/11/24 01:39:39;;;;;;;3.83;2.67;;;;;;;8.24;100.00;93421.75;5052274;28;20223;-63
2022/11/24 01:42:05;;;;;;;3.83;2.77;;;;;;;8.43;100.00;93435.06;5052789;28;20189;-60
2022/11/24 01:44:30;;;;;;;6.60;2.83;;;;;;;8.33;100.00;93428.47;5052452;28;20296;-63
2022/11/24 01:47:32;;;;;;;5.13;2.87;;;;;;;8.15;100.00;93403.16;5054086;28;20189;-62
2022/11/24 01:50:05;;;;;;;3.73;2.77;;;;;;;8.27;100.00;93406.28;5074288;28;20203;-63
2022/11/24 01:52:37;;;;;;;4.13;2.60;;;;;;;8.34;100.00;93428.31;5073873;28;20287;-61
2022/11/24 01:55:08;;;;;;;5.70;2.97;;;;;;;8.58;100.00;93437.06;5074044;28;20212;-63
2022/11/24 01:57:46;;;;;;;5.00;2.57;;;;;;;8.58;100.00;93444.66;5074099;28;20181;-63
2022/11/24 02:00:13;;;;;;;5.97;2.93;;;;;;;8.55;100.00;93430.53;5074064;28;20230;-63
2022/11/24 02:02:40;;;;;;;3.67;2.40;;;;;;;8.55;100.00;93432.25;5073939;28;20581;-63
2022/11/24 02:05:22;;;;;;;6.20;3.13;;;;;;;8.48;100.00;93429.56;5073991;28;20209;-63
2022/11/24 02:07:49;;;;;;;5.47;2.97;;;;;;;8.56;100.00;93426.28;5073648;28;20193;-63
2022/11/24 02:10:15;;;;;;;2.97;2.43;;;;;;;8.56;100.00;93426.28;5055814;28;20217;-63
2022/11/24 02:12:45;;;;;;;6.60;2.70;;;;;;;8.60;100.00;93443.56;5073586;28;20185;-62
2022/11/24 02:15:16;;;;;;;4.70;2.80;;;;;;;8.51;100.00;93426.72;5073865;28;20212;-63
2022/11/24 02:17:42;;;;;;;4.57;2.30;;;;;;;8.59;100.00;93446.22;5072614;28;20218;-62
2022/11/24 02:20:10;;;;;;;8.00;2.60;;;;;;;8.61;100.00;93450.22;5073523;28;20339;-60
2022/11/24 02:22:49;;;;;;;5.47;2.90;;;;;;;8.58;100.00;93467.44;5073658;28;20189;-63
2022/11/24 02:25:38;;;;;;;3.93;2.67;;;;;;;8.55;100.00;93471.06;5055448;28;20225;-63
2022/11/24 02:28:07;;;;;;;6.73;3.03;;;;;;;8.47;100.00;93473.53;5073823;28;20184;-64
2022/11/24 02:30:34;;;;;;;4.10;2.40;;;;;;;8.44;100.00;93459.41;5073289;28;20213;-63
2022/11/24 02:32:59;;;;;;;3.20;2.17;;;;;;;8.29;100.00;93434.78;5073425;28;20197;-63
2022/11/24 02:35:26;;;;;;;5.70;2.67;;;;;;;8.48;100.00;93447.28;5073723;28;20682;-63
2022/11/24 02:37:52;;;;;;;4.53;2.80;;;;;;;8.66;100.00;93464.97;5073261;28;20716;-62
2022/11/24 02:40:24;;;;;;;4.60;2.47;;;;;;;8.75;100.00;93472.47;5055108;28;20216;-61
2022/11/24 02:42:55;;;;;;;8.20;2.83;;;;;;;8.66;100.00;93480.16;5073182;28;20189;-62
2022/11/24 02:45:21;;;;;;;5.17;2.40;;;;;;;8.54;100.00;93484.69;5073030;28;20290;-63
2022/11/24 02:47:47;;;;;;;2.93;2.07;;;;;;;8.54;100.00;93499.88;5072991;28;20552;-62
2022/11/24 02:50:12;;;;;;;6.67;2.57;;;;;;;8.37;100.00;93478.69;5073338;28;20288;-62
2022/11/24 02:52:38;;;;;;;5.17;2.97;;;;;;;8.37;100.00;93485.47;5072979;28;20192;-63
2022/11/24 02:55:03;;;;;;;3.67;2.30;;;;;;;8.30;100.00;93471.81;5055038;28;20263;-63
2022/11/24 02:57:29;;;;;;;3.27;2.20;;;;;;;8.22;100.00;93467.44;5072218;28;20181;-63
2022/11/24 02:59:55;;;;;;;3.10;2.00;;;;;;;8.12;100.00;93451.53;5072630;28;20225;-63
2022/11/24 03:02:20;;;;;;;5.30;2.50;;;;;;;8.18;100.00;93461.06;5072666;28;20208;-62
2022/11/24 03:04:46;;;;;;;3.47;2.33;;;;;;;8.15;100.00;93453.78;5073036;28;20220;-63
2022/11/24 03:07:11;;;;;;;3.17;2.33;;;;;;;8.10;100.00;93453.41;5072908;28;20543;-62
2022/11/24 03:09:37;;;;;;;4.23;2.50;;;;;;;8.15;100.00;93456.31;5072613;28;20216;-62
2022/11/24 03:12:02;;;;;;;9.20;2.20;;;;;;;8.12;100.00;93450.75;5072848;28;20189;-59
2022/11/24 03:14:27;;;;;;;8.90;2.67;;;;;;;8.13;100.00;93447.25;5072590;28;20244;-60
2022/11/24 03:16:53;;;;;;;3.43;2.10;;;;;;;8.19;100.00;93462.66;5072635;28;20216;-62
2022/11/24 03:19:18;;;;;;;3.20;2.20;;;;;;;8.21;100.00;93475.16;5072631;28;20234;-60
2022/11/24 03:21:44;;;;;;;4.17;2.30;;;;;;;8.28;100.00;93481.28;5072557;28;20234;-63
2022/11/24 03:24:09;;;;;;;4.67;2.40;;;;;;;8.24;100.00;93478.19;5072569;28;20208;-61
2022/11/24 03:26:34;;;;;;;4.73;2.17;;;;;;;8.39;100.00;93491.19;5072423;28;20242;-60
2022/11/24 03:29:00;;;;;;;2.33;2.00;;;;;;;8.45;100.00;93496.47;5072333;28;20209;-63
2022/11/24 03:31:26;;;;;;;3.10;2.17;;;;;;;8.24;100.00;93506.03;5072437;28;20193;-61
2022/11/24 03:33:51;;;;;;;4.97;2.20;;;;;;;8.23;100.00;93507.00;5072384;28;20189;-63
2022/11/24 03:36:17;;;;;;;2.93;2.07;;;;;;;8.00;100.00;93485.56;5073027;28;20673;-60
2022/11/24 03:38:42;;;;;;;2.80;1.83;;;;;;;8.01;100.00;93491.44;5054307;28;20184;-64
2022/11/24 03:41:08;;;;;;;3.00;2.07;;;;;;;7.98;100.00;93476.56;5054396;28;20711;-62
2022/11/24 03:43:33;;;;;;;3.13;2.40;;;;;;;8.07;100.00;93485.78;5072123;28;20216;-59
2022/11/24 03:45:59;;;;;;;4.20;2.00;;;;;;;8.12;100.00;93502.13;5072309;28;20217;-62
2022/11/24 03:48:24;;;;;;;2.10;1.90;;;;;;;8.17;100.00;93510.09;5072206;28;20455;-63
2022/11/24 03:50:55;;;;;;;3.37;2.20;;;;;;;8.22;100.00;93530.72;5054045;28;20204;-62
2022/11/24 03:53:22;;;;;;;4.13;2.23;;;;;;;8.01;100.00;93509.16;5072151;28;20184;-62
2022/11/24 03:55:47;;;;;;;3.30;2.00;;;;;;;8.00;100.00;93502.50;5072026;28;20205;-62
2022/11/24 03:58:12;;;;;;;2.93;1.90;;;;;;;8.04;100.00;93508.88;5072004;28;20183;-62
2022/11/24 04:00:38;;;;;;;2.93;1.73;;;;;;;7.91;100.00;93495.75;5054136;28;20221;-62
2022/11/24 04:03:03;;;;;;;2.87;2.20;;;;;;;7.95;100.00;93500.41;5071973;28;20573;-62
2022/11/24 04:05:29;;;;;;;4.37;2.00;;;;;;;7.98;100.00;93497.56;5053997;28;20215;-63
2022/11/24 04:07:56;;;;;;;3.20;2.10;;;;;;;8.18;100.00;93529.41;5071733;28;20218;-63
2022/11/24 04:10:22;;;;;;;3.30;2.10;;;;;;;8.21;100.00;93521.53;5071555;28;20213;-64
2022/11/24 04:12:48;;;;;;;2.80;2.13;;;;;;;8.25;100.00;93525.41;5071946;28;20196;-62
2022/11/24 04:15:16;;;;;;;3.40;2.10;;;;;;;8.20;100.00;93535.13;5071649;28;20205;-62
2022/11/24 04:17:42;;;;;;;5.87;2.50;;;;;;;8.07;100.00;93516.97;5071711;28;20566;-60
2022/11/24 04:20:09;;;;;;;4.03;2.27;;;;;;;8.21;100.00;93524.06;5053583;28;20690;-63
2022/11/24 04:22:34;;;;;;;2.17;1.83;;;;;;;8.26;100.00;93556.59;5071604;28;20203;-63
2022/11/24 04:25:00;;;;;;;3.10;2.10;;;;;;;8.21;100.00;93551.91;5071792;28;20208;-62
2022/11/24 04:27:26;;;;;;;3.37;1.90;;;;;;;8.19;100.00;93545.41;5053555;28;20189;-62
2022/11/24 04:29:51;;;;;;;3.87;2.27;;;;;;;8.12;100.00;93535.03;5072008;28;20586;-63
2022/11/24 04:32:17;;;;;;;4.73;2.53;;;;;;;8.27;100.00;93560.69;5071465;28;20204;-59
2022/11/24 04:34:42;;;;;;;5.50;2.53;;;;;;;8.25;100.00;93555.78;5071567;28;20306;-63
2022/11/24 04:37:08;;;;;;;6.57;2.70;;;;;;;8.30;100.00;93548.53;5053364;28;20193;-63
2022/11/24 04:39:33;;;;;;;4.03;2.87;;;;;;;8.38;100.00;93561.28;5071267;28;20216;-63
2022/11/24 04:41:59;;;;;;;4.90;2.67;;;;;;;8.26;100.00;93552.28;5071380;28;20267;-61
2022/11/24 04:44:24;;;;;;;3.70;2.63;;;;;;;8.37;100.00;93569.81;5053234;28;20221;-62
2022/11/24 04:46:50;;;;;;;3.63;2.67;;;;;;;8.19;100.00;93546.19;5053401;28;20196;-63
2022/11/24 04:49:16;;;;;;;5.40;2.83;;;;;;;7.98;100.00;93527.94;5053057;28;20213;-60
2022/11/24 04:51:41;;;;;;;6.63;3.00;;;;;;;7.75;100.00;93493.84;5053118;28;20247;-64
2022/11/24 04:54:10;;;;;;;5.57;3.40;;;;;;;7.76;100.00;93509.84;5053098;28;20585;-63
2022/11/24 04:56:35;;;;;;;3.67;2.67;;;;;;;7.68;100.00;93502.94;5071055;28;20193;-63
2022/11/24 04:59:00;;;;;;;5.20;3.10;;;;;;;7.63;100.00;93492.47;5053009;28;20209;-63
2022/11/24 05:01:26;;;;;;;6.07;2.80;;;;;;;7.79;100.00;93522.19;5071074;28;20243;-63
2022/11/24 05:03:53;;;;;;;4.37;2.43;;;;;;;7.80;100.00;93514.44;5070920;28;20181;-61
2022/11/24 05:06:19;;;;;;;7.73;2.40;;;;;;;7.94;100.00;93520.78;5071019;28;20203;-64
2022/11/24 05:08:49;;;;;;;4.70;3.03;;;;;;;7.94;100.00;93524.09;5070841;28;20187;-63
2022/11/24 05:11:15;;;;;;;8.43;3.60;;;;;;;7.79;100.00;93509.53;5071295;28;20189;-60
2022/11/24 05:13:41;;;;;;;8.40;3.90;;;;;;;8.00;100.00;93521.00;5070873;28;20181;-62
2022/11/24 05:16:06;;;;;;;5.07;3.80;;;;;;;8.19;100.00;93531.00;5071127;28;20342;-63
2022/11/24 05:18:32;;;;;;;8.77;3.90;;;;;;;8.23;100.00;93542.44;5071032;28;20593;-63
2022/11/24 05:20:58;;;;;;;8.03;4.13;;;;;;;8.14;100.00;93532.38;5069635;28;20319;-63
2022/11/24 05:23:25;;;;;;;8.90;5.23;;;;;;;8.30;100.00;93540.94;5070674;28;20212;-64
2022/11/24 05:25:50;;;;;;;10.20;6.43;;;;;;;8.22;100.00;93532.47;5070693;28;20215;-63
2022/11/24 05:28:17;;;;;;;13.50;7.10;;;;;;;8.14;100.00;93522.25;5070702;28;20189;-63
2022/11/24 05:30:43;;;;;;;12.10;5.83;;;;;;;8.17;100.00;93532.88;5052861;28;20720;-63
2022/11/24 05:33:17;;;;;;;13.20;5.97;;;;;;;8.25;100.00;93534.72;5070592;28;20207;-62
2022/11/24 05:35:47;;;;;;;8.73;5.17;;;;;;;8.20;100.00;93527.53;5070913;28;20219;-60
2022/11/24 05:38:15;;;;;;;8.67;5.20;;;;;;;8.32;100.00;93541.59;5052619;28;20625;-61
2022/11/24 05:40:41;;;;;;;12.43;5.17;;;;;;;8.35;100.00;93545.59;5052256;28;20239;-59
2022/11/24 05:43:14;;;;;;;16.90;5.87;;;;;;;8.48;100.00;93557.91;5070542;28;20650;-59
2022/11/24 05:45:40;;;;;;;7.97;4.67;;;;;;;8.49;100.00;93575.47;5070370;28;20216;-59
2022/11/24 05:48:07;;;;;;;9.10;4.40;;;;;;;8.35;100.00;93576.78;5052364;28;20192;-63
2022/11/24 05:50:33;;;;;;;14.00;4.33;;;;;;;8.32;100.00;93577.03;5070528;28;20696;-62
2022/11/24 05:53:07;;;;;;;6.87;4.23;;;;;;;8.35;100.00;93568.38;5070326;28;20192;-62
2022/11/24 05:55:34;;;;;;;9.20;3.73;;;;;;;8.38;100.00;93585.81;5070644;28;20606;-62
2022/11/24 05:58:00;;;;;;;6.77;3.90;;;;;;;8.34;100.00;93572.63;5070312;28;20185;-59
2022/11/24 06:00:27;;;;;;;6.03;3.63;;;;;;;8.29;100.00;93567.22;5070409;28;20227;-63
2022/11/24 06:02:52;;;;;;;11.83;3.63;;;;;;;8.73;100.00;93557.16;5070359;28;20185;-65
2022/11/24 06:05:18;;;;;;;7.63;4.10;;;;;;;10.78;100.00;93593.25;5070147;28;20278;-64
2022/11/24 06:07:44;;;;;;;7.43;4.40;;;;;;;11.66;100.00;93587.34;5070348;28;20185;-64
2022/11/24 06:10:09;;;;;;;8.37;4.40;;;;;;;11.45;100.00;93663.38;5035518;28;20282;-63
2022/11/24 06:12:35;;;;;;;11.60;5.77;;;;;;;11.14;100.00;93708.19;5070223;28;20189;-64
2022/11/24 06:15:00;;;;;;;6.97;4.03;;;;;;;10.97;100.00;93737.06;5070056;28;20217;-63
2022/11/24 06:17:26;;;;;;;7.80;4.20;;;;;;;10.71;100.00;93744.78;5052130;28;20226;-63
2022/11/24 06:19:51;;;;;;;15.47;5.13;;;;;;;10.52;100.00;93711.19;5077062;22;20752;-63
2022/11/24 06:22:20;;;;;;;8.30;4.23;;;;;;;10.48;100.00;93697.19;5070082;28;20315;-62
2022/11/24 06:24:46;;;;;;;13.90;4.77;;;;;;;10.48;100.00;93742.94;5070120;28;20304;-64
2022/11/24 06:27:12;;;;;;;24.20;5.77;;;;;;;10.44;100.00;93744.19;5052050;28;20698;-60
2022/11/24 06:29:38;;;;;;;12.73;5.10;;;;;;;10.34;100.00;93741.75;5069982;28;20212;-64
2022/11/24 06:32:04;;;;;;;14.83;6.03;;;;;;;9.94;100.00;93704.19;5069962;28;20189;-62
2022/11/24 06:34:29;;;;;;;15.97;6.37;;;;;;;9.68;100.00;93667.84;5073621;28;20706;-63
2022/11/24 06:36:55;;;;;;;18.83;7.37;;;;;;;9.69;100.00;93656.78;5073284;28;20224;-63
2022/11/24 06:39:20;;;;;;;14.77;6.37;;;;;;;9.80;100.00;93674.28;5073740;28;20582;-62
2022/11/24 06:41:48;;;;;;;19.23;6.07;;;;;;;9.78;100.00;93663.47;5073008;28;20247;-63
2022/11/24 06:44:13;;;;;;;12.47;6.43;;;;;;;9.80;100.00;93681.88;5073360;28;20281;-63
2022/11/24 06:46:38;;;;;;;17.93;5.50;;;;;;;9.83;100.00;93679.06;5073178;28;20699;-62
2022/11/24 06:49:04;;;;;;;12.63;6.27;;;;;;;10.16;100.00;93722.44;5073231;28;20219;-61
2022/11/24 06:51:29;;;;;;;21.50;6.20;;;;;;;9.96;100.00;93697.22;5073077;28;20250;-63
2022/11/24 06:53:55;;;;;;;14.83;5.97;;;;;;;9.83;100.00;93698.56;5073141;28;20203;-65
2022/11/24 06:56:21;;;;;;;13.70;6.53;;;;;;;9.85;100.00;93705.09;5054920;28;20197;-63
2022/11/24 06:58:48;;;;;;;11.87;5.80;;;;;;;9.92;100.00;93718.78;5072951;28;20635;-62
2022/11/24 07:01:19;;;;;;;9.23;5.43;;;;;;;9.62;100.00;93736.16;5072650;28;20254;-63
2022/11/24 07:03:47;;;;;;;14.37;5.67;;;;;;;9.63;100.00;93725.88;5072847;28;20216;-60
2022/11/24 07:06:12;;;;;;;12.30;7.10;;;;;;;9.68;100.00;93721.13;5072645;28;20242;-60
2022/11/24 07:08:38;;;;;;;13.47;7.63;;;;;;;9.62;100.00;93729.34;5072917;28;20189;-63
2022/11/24 07:11:09;;;;;;;18.63;7.87;;;;;;;9.51;100.00;93719.44;5072627;28;20200;-64
2022/11/24 07:13:35;;;;;;;15.97;9.07;;;;;;;9.49;100.00;93731.47;5072688;28;20364;-62
2022/11/24 07:16:13;;;;;;;14.93;9.70;;;;;;;9.53;100.00;93716.75;5072694;28;20308;-63
2022/11/24 07:18:39;;;;;;;15.70;10.23;;;;;;;9.54;100.00;93726.75;5072552;28;20296;-64
2022/11/24 07:21:05;;;;;;;32.97;20.10;;;;;;;9.48;100.00;93708.75;5072775;28;20662;-63
2022/11/24 07:23:31;;;;;;;18.70;9.83;;;;;;;9.31;100.00;93733.22;5072489;28;20193;-64
2022/11/24 07:25:57;;;;;;;22.70;12.67;;;;;;;9.16;100.00;93715.16;5054405;28;20224;-64
2022/11/24 07:28:23;;;;;;;25.07;13.70;;;;;;;9.11;100.00;93724.16;5054289;28;20207;-63
2022/11/24 07:30:48;;;;;;;22.20;12.80;;;;;;;9.17;100.00;93721.81;5072616;28;20280;-62
2022/11/24 07:33:14;;;;;;;20.60;11.13;;;;;;;8.84;100.00;93714.84;5072410;28;20201;-62
2022/11/24 07:35:40;;;;;;;16.80;9.67;;;;;;;8.87;100.00;93706.94;5072301;28;20208;-61
2022/11/24 07:38:05;;;;;;;16.87;10.07;;;;;;;8.95;100.00;93714.63;5072322;28;20181;-63
2022/11/24 07:40:31;;;;;;;14.90;9.67;;;;;;;8.89;100.00;93712.66;5072259;28;20303;-62
2022/11/24 07:42:59;;;;;;;19.33;9.77;;;;;;;8.75;100.00;93715.69;5072076;28;20189;-60
2022/11/24 07:45:24;;;;;;;11.30;7.53;;;;;;;8.53;100.00;93700.06;5053393;28;20220;-64
2022/11/24 07:47:50;;;;;;;11.60;7.63;;;;;;;8.42;100.00;93701.06;5054252;28;20637;-61
2022/11/24 07:50:16;;;;;;;14.50;8.23;;;;;;;8.40;100.00;93708.78;5054346;28;20252;-63
2022/11/24 07:52:41;;;;;;;10.37;6.77;;;;;;;8.45;100.00;93719.31;5072037;28;20281;-63
2022/11/24 07:55:07;;;;;;;19.60;7.57;;;;;;;8.42;100.00;93727.16;5072024;28;20709;-60
2022/11/24 07:57:33;;;;;;;11.43;7.23;;;;;;;8.43;100.00;93730.50;5071847;28;20189;-60
2022/11/24 07:59:58;;;;;;;11.10;7.63;;;;;;;8.39;100.00;93730.00;5071714;28;20296;-63
2022/11/24 08:02:24;;;;;;;13.20;7.57;;;;;;;8.40;100.00;93749.31;5071819;28;20272;-62
2022/11/24 08:04:49;;;;;;;13.20;8.33;;;;;;;8.40;100.00;93736.66;5071905;28;20635;-63
2022/11/24 08:07:14;;;;;;;14.00;7.33;;;;;;;8.33;100.00;93750.00;5071961;28;20271;-63
2022/11/24 08:09:40;;;;;;;10.27;7.97;;;;;;;8.07;100.00;93747.25;5071868;28;20273;-64
2022/11/24 08:12:05;;;;;;;11.00;7.20;;;;;;;7.81;100.00;93743.72;5071670;28;20546;-64
2022/11/24 08:14:31;;;;;;;10.80;7.43;;;;;;;7.78;100.00;93748.28;5053558;28;20212;-62
2022/11/24 08:16:57;;;;;;;10.53;7.63;;;;;;;7.77;100.00;93760.09;5071535;28;20189;-63
2022/11/24 08:19:23;;;;;;;11.40;7.13;;;;;;;7.43;100.00;93753.88;5053440;28;20219;-62
2022/11/24 08:21:48;;;;;;;13.97;7.73;;;;;;;7.34;100.00;93760.53;5071357;28;20747;-61
2022/11/24 08:24:15;;;;;;;13.00;7.67;;;;;;;7.18;100.00;93765.28;5071427;28;20564;-62
2022/11/24 08:26:41;;;;;;;10.87;7.37;;;;;;;7.03;100.00;93771.66;5071389;28;20232;-62
2022/11/24 08:29:06;;;;;;;8.73;6.63;;;;;;;7.02;100.00;93774.31;5071732;28;20250;-60
2022/11/24 08:31:33;;;;;;;10.47;6.77;;;;;;;7.05;100.00;93789.22;5071347;28;20545;-59
2022/11/24 08:33:58;;;;;;;10.47;7.23;;;;;;;7.11;100.00;93796.28;5071437;28;20188;-60
2022/11/24 08:36:24;;;;;;;11.70;7.07;;;;;;;7.22;100.00;93786.84;5071256;28;20673;-62
2022/11/24 08:39:00;;;;;;;8.93;5.93;;;;;;;7.03;100.00;93801.97;5071215;28;20219;-63
2022/11/24 08:41:26;;;;;;;10.47;7.20;;;;;;;6.99;100.00;93798.09;5071205;28;20219;-59
2022/11/24 08:43:53;;;;;;;10.97;7.57;;;;;;;6.98;100.00;93800.75;5071083;28;20204;-64
2022/11/24 08:46:19;;;;;;;11.57;7.00;;;;;;;6.93;100.00;93796.09;5069856;28;20330;-63
2022/11/24 08:48:52;;;;;;;12.60;6.97;;;;;;;6.96;100.00;93815.25;5071192;28;20263;-63
2022/11/24 08:51:27;;;;;;;9.70;6.40;;;;;;;6.84;100.00;93823.84;5053390;28;20199;-63
2022/11/24 08:53:54;;;;;;;9.90;6.43;;;;;;;6.79;100.00;93820.00;5071447;28;20275;-64
2022/11/24 08:56:20;;;;;;;9.87;6.23;;;;;;;6.69;100.00;93821.69;5051816;28;20300;-64
2022/11/24 08:58:45;;;;;;;8.53;5.73;;;;;;;6.65;100.00;93817.00;5071294;28;20257;-63
2022/11/24 09:01:16;;;;;;;8.27;4.87;;;;;;;6.59;100.00;93823.38;5070925;28;20555;-63
2022/11/24 09:03:43;;;;;;;9.33;5.57;;;;;;;6.61;100.00;93819.00;5071017;28;20189;-59
2022/11/24 09:06:09;;;;;;;8.53;5.27;;;;;;;6.73;100.00;93838.19;5071048;28;20267;-59
2022/11/24 09:08:36;;;;;;;6.37;3.60;;;;;;;6.77;100.00;93841.25;5071021;28;20208;-62
2022/11/24 09:11:07;;;;;;;7.20;3.70;;;;;;;6.66;100.00;93838.81;5070727;28;20213;-64
2022/11/24 09:13:33;;;;;;;4.70;3.03;;;;;;;6.65;100.00;93845.59;5071024;28;20185;-62
2022/11/24 09:16:11;;;;;;;4.70;3.10;;;;;;;6.62;100.00;93829.91;5070493;28;20731;-63
2022/11/24 09:18:59;;;;;;;7.27;3.97;;;;;;;6.70;100.00;93837.63;5070881;28;20191;-63
2022/11/24 09:21:25;;;;;;;5.60;2.90;;;;;;;6.68;100.00;93852.13;5070691;28;20226;-63
2022/11/24 09:23:52;;;;;;;6.17;3.40;;;;;;;6.58;100.00;93862.19;5070642;28;20270;-63
2022/11/24 09:26:21;;;;;;;2.93;2.67;;;;;;;6.53;100.00;93869.31;5052586;28;20196;-59
2022/11/24 09:28:48;;;;;;;2.97;2.20;;;;;;;6.79;100.00;93854.53;5070439;28;20577;-63
2022/11/24 09:31:15;;;;;;;2.93;2.57;;;;;;;6.77;100.00;93882.44;5070804;28;20192;-62
2022/11/24 09:33:41;;;;;;;4.27;2.50;;;;;;;6.76;100.00;93875.00;5070699;28;20705;-64
2022/11/24 09:36:08;;;;;;;3.90;2.70;;;;;;;6.82;100.00;93888.84;5070555;28;20196;-62
2022/11/24 09:38:33;;;;;;;2.07;1.60;;;;;;;6.72;100.00;93902.25;5070540;28;20191;-64
2022/11/24 09:41:30;;;;;;;2.87;2.00;;;;;;;6.68;100.00;93888.28;5070391;28;20219;-62
2022/11/24 09:44:18;;;;;;;2.87;2.30;;;;;;;6.72;100.00;93887.09;5069838;28;20329;-62
2022/11/24 09:47:05;;;;;;;2.97;1.77;;;;;;;6.70;100.00;93886.44;5070445;28;20271;-62
2022/11/24 09:49:59;;;;;;;2.07;1.30;;;;;;;6.67;100.00;93893.44;5070370;28;20628;-63
2022/11/24 09:52:50;;;;;;;2.10;1.27;;;;;;;6.60;100.00;93910.81;5067683;28;20203;-63
2022/11/24 09:55:40;;;;;;;2.77;1.70;;;;;;;6.65;100.00;93913.75;5070084;28;20227;-63
2022/11/24 09:58:43;;;;;;;3.43;1.37;;;;;;;6.63;100.00;93930.75;5070261;28;20195;-63
2022/11/24 10:01:16;;;;;;;3.50;1.20;;;;;;;6.49;100.00;93931.06;5052081;28;20275;-64
2022/11/24 10:03:47;;;;;;;1.33;1.00;;;;;;;6.40;100.00;93951.22;5070248;28;20187;-62
2022/11/24 10:06:22;;;;;;;0.83;0.80;;;;;;;6.44;100.00;93945.81;5070162;28;20191;-63
2022/11/24 10:09:05;;;;;;;1.87;1.03;;;;;;;6.60;100.00;93943.66;5072965;28;20187;-60
2022/11/24 10:11:35;;;;;;;1.77;0.90;;;;;;;6.49;100.00;93942.88;5073572;28;20189;-63
2022/11/24 10:14:35;;;;;;;2.10;1.53;;;;;;;6.33;100.00;93945.84;5073466;28;20236;-64
2022/11/24 10:17:27;;;;;;;4.37;1.57;;;;;;;6.30;100.00;93933.47;5073651;28;20195;-62
2022/11/24 10:20:15;;;;;;;5.13;1.90;;;;;;;6.27;100.00;93920.28;5055434;28;20572;-59
2022/11/24 10:23:02;;;;;;;1.40;1.30;;;;;;;6.25;100.00;93914.56;5073509;28;20602;-64
2022/11/24 10:26:07;;;;;;;2.30;1.57;;;;;;;6.15;100.00;93913.69;5073458;28;20251;-61
2022/11/24 10:28:53;;;;;;;1.73;1.60;;;;;;;6.17;100.00;93921.94;4975814;28;20231;-62
2022/11/24 10:31:29;;;;;;;2.20;2.00;;;;;;;6.06;100.00;93932.88;5070246;28;20204;-59
2022/11/24 10:34:00;;;;;;;4.00;1.53;;;;;;;5.92;100.00;93913.78;5073300;28;20196;-60
2022/11/24 10:36:44;;;;;;;3.43;1.90;;;;;;;6.09;100.00;93915.00;5073265;28;20207;-60
2022/11/24 10:39:29;;;;;;;2.57;2.13;;;;;;;6.04;100.00;93924.63;5073149;28;20277;-59
2022/11/24 10:42:11;;;;;;;2.57;1.90;;;;;;;5.96;100.00;93926.19;5032357;28;20319;-63
2022/11/24 10:44:37;;;;;;;2.20;2.00;;;;;;;5.88;100.00;93924.22;5054890;28;20210;-62
2022/11/24 10:47:03;;;;;;;1.97;1.47;;;;;;;5.87;100.00;93931.03;5072795;28;20189;-62
2022/11/24 10:49:31;;;;;;;1.77;1.63;;;;;;;5.83;100.00;93934.69;5080201;22;20224;-62
2022/11/24 10:52:15;;;;;;;3.93;1.90;;;;;;;5.90;100.00;93924.91;5072825;28;20193;-63
2022/11/24 10:54:56;;;;;;;2.57;2.10;;;;;;;5.87;100.00;93940.31;5072895;28;20204;-60
2022/11/24 10:57:36;;;;;;;3.73;2.80;;;;;;;5.92;100.00;93944.06;5072964;28;20696;-60
2022/11/24 11:00:24;;;;;;;4.50;2.20;;;;;;;6.08;100.00;93941.13;5072797;28;20242;-63
2022/11/24 11:03:10;;;;;;;5.30;2.17;;;;;;;6.17;100.00;93983.31;5058913;28;20193;-64
2022/11/24 11:05:43;;;;;;;2.60;2.40;;;;;;;6.14;100.00;93972.66;5072860;28;20305;-65
2022/11/24 11:08:24;;;;;;;4.47;2.20;;;;;;;6.05;100.00;93979.22;5072750;28;20195;-59
2022/11/24 11:11:13;;;;;;;4.37;2.77;;;;;;;6.05;100.00;93964.09;5054708;28;20227;-64
2022/11/24 11:13:55;;;;;;;3.63;2.13;;;;;;;6.19;100.00;93985.69;5060684;28;20265;-63
2022/11/24 11:16:29;;;;;;;2.20;1.83;;;;;;;6.17;100.00;93977.44;5072471;28;20175;-64
2022/11/24 11:18:55;;;;;;;6.03;2.90;;;;;;;6.20;100.00;93983.06;5071305;28;20253;-62
2022/11/24 11:21:32;;;;;;;4.33;2.47;;;;;;;6.23;100.00;93984.53;5061782;23;20221;-62
2022/11/24 11:24:01;;;;;;;5.00;3.17;;;;;;;6.19;100.00;93976.41;5072447;28;20271;-61
2022/11/24 11:26:37;;;;;;;5.23;3.43;;;;;;;6.27;100.00;93971.56;5072414;28;20228;-63
2022/11/24 11:29:05;;;;;;;3.30;2.63;;;;;;;6.16;100.00;93981.69;5072397;28;20215;-65
2022/11/24 11:31:32;;;;;;;3.30;2.73;;;;;;;6.12;100.00;93970.25;5072428;28;20249;-63
2022/11/24 11:34:08;;;;;;;2.93;2.63;;;;;;;6.10;100.00;93986.44;5071964;28;20241;-63
2022/11/24 11:36:38;;;;;;;4.03;2.87;;;;;;;6.21;100.00;93982.16;5072287;28;20655;-62
2022/11/24 11:39:04;;;;;;;4.17;2.90;;;;;;;6.03;100.00;93985.31;5072187;28;20205;-63
2022/11/24 11:41:33;;;;;;;4.70;3.40;;;;;;;5.98;100.00;93983.13;5072195;28;20265;-63